createdAt,value
2023-05-07T00:02:10.169Z,9.30
2023-05-07T00:04:57.408Z,9.02
2023-05-07T00:07:46.554Z,9.18
2023-05-07T00:10:33.693Z,9.85
2023-05-07T00:13:20.749Z,9.73
2023-05-07T00:16:08.008Z,9.93
2023-05-07T00:18:55.511Z,8.60
2023-05-07T00:21:42.780Z,8.65
2023-05-07T00:24:31.206Z,9.55
2023-05-07T00:27:18.552Z,9.95
2023-05-07T00:30:05.920Z,9.07
2023-05-07T00:32:53.251Z,8.70
2023-05-07T00:35:40.440Z,8.48
2023-05-07T00:38:27.687Z,9.02
2023-05-07T00:41:16.302Z,8.55
2023-05-07T00:44:04.248Z,7.97
2023-05-07T00:46:51.685Z,9.00
2023-05-07T00:49:42.326Z,9.43
2023-05-07T00:52:29.929Z,9.82
2023-05-07T00:55:17.323Z,8.90
2023-05-07T00:58:05.858Z,9.02
2023-05-07T01:00:53.483Z,8.88
2023-05-07T01:03:40.970Z,9.43
2023-05-07T01:06:29.301Z,9.75
2023-05-07T01:09:17.231Z,8.98
2023-05-07T01:12:05.381Z,9.25
2023-05-07T01:14:54.575Z,9.60
2023-05-07T01:17:43.719Z,9.80
2023-05-07T01:20:44.835Z,9.00
2023-05-07T01:23:33.425Z,9.50
2023-05-07T01:26:21.630Z,10.93
2023-05-07T01:29:08.703Z,9.98
2023-05-07T01:31:58.017Z,9.40
2023-05-07T01:34:47.507Z,9.20
2023-05-07T01:37:35.158Z,10.30
2023-05-07T01:40:24.748Z,9.68
2023-05-07T01:43:13.388Z,10.60
2023-05-07T01:46:02.177Z,9.65
2023-05-07T01:48:49.557Z,10.02
2023-05-07T01:51:37.719Z,9.52
2023-05-07T01:54:29.813Z,9.57
2023-05-07T02:00:07.838Z,10.00
2023-05-07T02:03:02.991Z,9.50
2023-05-07T02:06:00.278Z,10.38
2023-05-07T02:08:57.951Z,9.07
2023-05-07T02:11:45.379Z,9.88
2023-05-07T02:14:35.414Z,10.30
2023-05-07T02:17:22.772Z,9.98
2023-05-07T02:20:14.635Z,10.07
2023-05-07T02:23:02.942Z,8.88
2023-05-07T02:25:51.429Z,9.68
2023-05-07T02:28:39.088Z,9.73
2023-05-07T02:31:28.481Z,8.85
2023-05-07T02:34:15.825Z,9.40
2023-05-07T02:37:03.440Z,9.40
2023-05-07T02:39:50.361Z,9.93
2023-05-07T02:42:37.799Z,9.48
2023-05-07T02:45:24.929Z,9.43
2023-05-07T02:48:16.218Z,9.05
2023-05-07T02:51:04.881Z,8.95
2023-05-07T02:53:52.760Z,9.75
2023-05-07T02:56:40.068Z,9.70
2023-05-07T02:59:28.092Z,10.82
2023-05-07T03:02:15.075Z,9.75
2023-05-07T03:05:03.294Z,10.40
2023-05-07T03:07:50.245Z,9.95
2023-05-07T03:10:37.960Z,9.98
2023-05-07T03:13:25.273Z,9.40
2023-05-07T03:16:13.733Z,9.48
2023-05-07T03:19:01.390Z,9.23
2023-05-07T03:21:52.175Z,9.27
2023-05-07T03:24:39.186Z,9.00
2023-05-07T03:27:26.272Z,8.35
2023-05-07T03:30:15.131Z,8.88
2023-05-07T03:33:02.382Z,8.27
2023-05-07T03:35:49.405Z,8.32
2023-05-07T03:38:42.307Z,8.70
2023-05-07T03:41:30.789Z,8.20
2023-05-07T03:44:17.842Z,9.05
2023-05-07T03:47:06.589Z,8.65
2023-05-07T03:49:55.054Z,7.75
2023-05-07T03:52:45.629Z,8.07
2023-05-07T03:55:35.322Z,8.43
2023-05-07T03:58:22.586Z,7.90
2023-05-07T04:01:10.073Z,7.93
2023-05-07T04:03:57.652Z,8.35
2023-05-07T04:06:45.853Z,8.13
2023-05-07T04:09:33.649Z,8.63
2023-05-07T04:12:22.247Z,9.20
2023-05-07T04:15:10.317Z,9.02
2023-05-07T04:17:57.663Z,8.07
2023-05-07T04:20:46.233Z,8.15
2023-05-07T04:23:35.234Z,7.38
2023-05-07T04:26:25.473Z,7.55
2023-05-07T04:29:14.229Z,7.55
2023-05-07T04:32:01.881Z,7.53
2023-05-07T04:34:49.356Z,7.93
2023-05-07T04:37:37.141Z,7.57
2023-05-07T04:40:25.305Z,8.60
2023-05-07T04:43:12.716Z,7.78
2023-05-07T04:48:55.275Z,8.52
2023-05-07T04:51:45.051Z,8.80
2023-05-07T04:54:33.986Z,8.82
2023-05-07T04:57:20.801Z,8.27
2023-05-07T05:00:11.227Z,8.05
2023-05-07T05:03:01.832Z,8.32
2023-05-07T05:05:52.806Z,8.27
2023-05-07T05:08:41.759Z,7.63
2023-05-07T05:11:30.549Z,7.30
2023-05-07T05:14:17.372Z,8.85
2023-05-07T05:17:04.565Z,8.27
2023-05-07T05:19:53.203Z,7.82
2023-05-07T05:22:40.464Z,7.30
2023-05-07T05:25:29.639Z,7.85
2023-05-07T05:28:18.159Z,6.55
2023-05-07T05:31:05.297Z,7.03
2023-05-07T05:33:56.571Z,6.15
2023-05-07T05:36:46.150Z,5.57
2023-05-07T05:39:34.758Z,5.28
2023-05-07T05:42:22.747Z,5.50
2023-05-07T05:45:11.221Z,6.07
2023-05-07T05:48:00.201Z,5.47
2023-05-07T05:50:47.877Z,5.55
2023-05-07T05:53:39.203Z,5.13
2023-05-07T05:56:26.864Z,5.35
2023-05-07T05:59:14.364Z,4.72
2023-05-07T06:02:02.038Z,4.45
2023-05-07T06:04:50.199Z,5.20
2023-05-07T06:07:40.381Z,4.40
2023-05-07T06:10:29.302Z,4.55
2023-05-07T06:13:16.466Z,4.63
2023-05-07T06:16:04.325Z,4.30
2023-05-07T06:18:51.215Z,5.03
2023-05-07T06:21:38.451Z,4.78
2023-05-07T06:24:26.280Z,5.20
2023-05-07T06:27:15.879Z,4.72
2023-05-07T06:30:04.394Z,4.90
2023-05-07T06:32:51.962Z,4.28
2023-05-07T06:35:40.300Z,4.00
2023-05-07T06:38:27.386Z,4.18
2023-05-07T06:41:15.167Z,3.78
2023-05-07T06:44:04.371Z,3.28
2023-05-07T06:46:57.525Z,3.45
2023-05-07T06:49:44.986Z,3.20
2023-05-07T06:52:36.703Z,3.45
2023-05-07T06:55:26.884Z,2.83
2023-05-07T06:58:15.392Z,3.25
2023-05-07T07:01:04.226Z,3.15
2023-05-07T07:03:52.983Z,2.95
2023-05-07T07:06:41.992Z,3.60
2023-05-07T07:09:31.785Z,3.47
2023-05-07T07:12:21.356Z,3.28
2023-05-07T07:15:09.514Z,3.58
2023-05-07T07:17:57.800Z,3.40
2023-05-07T07:20:46.432Z,3.20
2023-05-07T07:23:34.535Z,3.30
2023-05-07T07:26:22.489Z,3.25
2023-05-07T07:29:10.148Z,3.15
2023-05-07T07:31:57.881Z,3.25
2023-05-07T07:34:46.781Z,2.92
2023-05-07T07:37:34.557Z,2.92
2023-05-07T07:40:22.264Z,2.70
2023-05-07T07:43:09.671Z,2.60
2023-05-07T07:45:57.542Z,2.97
2023-05-07T07:48:45.511Z,2.85
2023-05-07T07:51:34.842Z,2.42
2023-05-07T07:54:21.966Z,3.08
2023-05-07T07:57:09.573Z,2.90
2023-05-07T07:59:58.320Z,2.50
2023-05-07T08:02:45.300Z,2.10
2023-05-07T08:05:40.866Z,2.47
2023-05-07T08:08:29.698Z,2.38
2023-05-07T08:11:17.271Z,2.50
2023-05-07T08:14:04.810Z,2.40
2023-05-07T08:16:52.354Z,2.63
2023-05-07T08:19:39.385Z,2.47
2023-05-07T08:22:29.501Z,2.20
2023-05-07T08:25:18.155Z,1.83
2023-05-07T08:28:06.309Z,2.40
2023-05-07T08:30:54.012Z,2.42
2023-05-07T08:33:41.425Z,2.40
2023-05-07T08:36:29.688Z,2.28
2023-05-07T08:39:18.599Z,2.40
2023-05-07T08:42:12.032Z,2.35
2023-05-07T08:45:03.289Z,2.10
2023-05-07T08:47:54.226Z,2.65
2023-05-07T08:50:43.492Z,2.55
2023-05-07T08:53:32.259Z,1.98
2023-05-07T08:56:22.444Z,1.98
2023-05-07T08:59:13.191Z,2.00
2023-05-07T09:02:01.071Z,2.10
2023-05-07T09:04:48.400Z,2.20
2023-05-07T09:07:35.705Z,2.13
2023-05-07T09:10:26.017Z,1.73
2023-05-07T09:13:15.841Z,2.05
2023-05-07T09:16:14.997Z,1.77
2023-05-07T09:19:05.772Z,1.98
2023-05-07T09:22:02.420Z,2.25
2023-05-07T09:24:55.207Z,1.60
2023-05-07T09:27:46.176Z,1.50
2023-05-07T09:30:34.765Z,1.60
2023-05-07T09:33:30.783Z,1.67
2023-05-07T09:36:20.295Z,1.83
2023-05-07T09:39:07.676Z,1.67
2023-05-07T09:41:55.734Z,1.48
2023-05-07T09:44:51.911Z,1.50
2023-05-07T09:47:46.985Z,1.95
2023-05-07T09:50:44.270Z,1.80
2023-05-07T09:53:33.165Z,1.95
2023-05-07T09:56:24.185Z,1.70
2023-05-07T09:59:15.108Z,1.65
2023-05-07T10:02:05.096Z,1.85
2023-05-07T10:04:57.519Z,1.60
2023-05-07T10:07:52.691Z,2.10
2023-05-07T10:10:43.350Z,2.17
2023-05-07T10:13:35.905Z,1.58
2023-05-07T10:16:23.846Z,2.10
2023-05-07T10:19:12.079Z,1.73
2023-05-07T10:22:06.903Z,1.90
2023-05-07T10:25:05.726Z,2.30
2023-05-07T10:27:57.938Z,1.80
2023-05-07T10:30:58.175Z,2.03
2023-05-07T10:33:50.381Z,2.00
2023-05-07T10:36:40.644Z,1.92
2023-05-07T10:39:29.829Z,2.85
2023-05-07T10:42:19.668Z,1.80
2023-05-07T10:45:17.926Z,1.92
2023-05-07T10:51:23.410Z,2.15
2023-05-07T10:54:25.979Z,1.63
2023-05-07T10:57:39.379Z,1.77
2023-05-07T11:00:47.930Z,1.80
2023-05-07T11:04:14.071Z,2.47
2023-05-07T11:07:23.719Z,2.50
2023-05-07T11:10:12.261Z,1.90
2023-05-07T11:13:11.250Z,2.67
2023-05-07T11:16:07.695Z,1.95
2023-05-07T11:19:00.814Z,2.40
2023-05-07T11:21:55.427Z,2.08
2023-05-07T11:24:57.368Z,2.05
2023-05-07T11:27:45.509Z,2.10
2023-05-07T11:30:34.578Z,1.77
2023-05-07T11:33:22.232Z,2.40
2023-05-07T11:36:12.129Z,2.25
2023-05-07T11:39:06.869Z,2.53
2023-05-07T11:41:53.892Z,2.35
2023-05-07T11:44:46.981Z,2.03
2023-05-07T11:47:51.235Z,2.70
2023-05-07T11:50:38.091Z,3.10
2023-05-07T11:53:27.815Z,2.75
2023-05-07T11:56:16.769Z,2.60
2023-05-07T11:59:04.099Z,2.10
2023-05-07T12:01:51.458Z,2.30
2023-05-07T12:04:40.968Z,2.20
2023-05-07T12:07:28.338Z,2.30
2023-05-07T12:10:15.910Z,3.00
2023-05-07T12:13:03.305Z,2.83
2023-05-07T12:15:53.456Z,2.33
2023-05-07T12:18:40.967Z,2.60
2023-05-07T12:21:29.559Z,2.30
2023-05-07T12:24:17.188Z,2.50
2023-05-07T12:27:04.968Z,2.72
2023-05-07T12:29:53.108Z,2.53
2023-05-07T12:32:40.351Z,2.80
2023-05-07T12:35:30.778Z,2.20
2023-05-07T12:38:20.613Z,2.42
2023-05-07T12:41:09.327Z,2.20
2023-05-07T12:43:59.757Z,2.30
2023-05-07T12:46:48.854Z,2.13
2023-05-07T12:49:39.874Z,2.60
2023-05-07T12:52:27.446Z,2.38
2023-05-07T12:55:18.031Z,2.00
2023-05-07T12:58:04.886Z,1.90
2023-05-07T13:00:52.939Z,2.20
2023-05-07T13:03:40.913Z,2.30
2023-05-07T13:06:28.563Z,2.28
2023-05-07T13:09:16.021Z,1.92
2023-05-07T13:12:05.046Z,1.70
2023-05-07T13:14:52.085Z,1.80
2023-05-07T13:17:39.641Z,2.45
2023-05-07T13:20:26.444Z,2.15
2023-05-07T13:23:13.684Z,1.80
2023-05-07T13:26:04.143Z,2.30
2023-05-07T13:28:55.634Z,1.77
2023-05-07T13:31:45.263Z,1.60
2023-05-07T13:34:32.730Z,1.90
2023-05-07T13:37:21.488Z,1.40
2023-05-07T13:40:10.684Z,2.25
2023-05-07T13:43:00.803Z,2.10
2023-05-07T13:45:49.443Z,1.58
2023-05-07T13:48:36.398Z,1.63
2023-05-07T13:51:23.834Z,1.70
2023-05-07T13:54:11.091Z,6.10
2023-05-07T13:56:58.242Z,1.85
2023-05-07T13:59:45.234Z,1.83
2023-05-07T14:02:34.025Z,1.98
2023-05-07T14:05:22.924Z,1.50
2023-05-07T14:08:10.483Z,1.50
2023-05-07T14:10:57.863Z,1.90
2023-05-07T14:13:45.166Z,1.50
2023-05-07T14:16:32.481Z,1.60
2023-05-07T14:19:21.497Z,1.40
2023-05-07T14:22:08.626Z,2.00
2023-05-07T14:25:05.796Z,1.98
2023-05-07T14:28:02.168Z,1.60
2023-05-07T14:30:49.638Z,2.10
2023-05-07T14:33:36.826Z,1.75
2023-05-07T14:36:27.177Z,1.83
2023-05-07T14:39:14.970Z,1.90
2023-05-07T14:42:02.199Z,2.47
2023-05-07T14:44:49.574Z,2.42
2023-05-07T14:47:37.611Z,2.00
2023-05-07T14:50:24.745Z,2.17
2023-05-07T14:53:13.266Z,2.00
2023-05-07T14:56:01.402Z,2.60
2023-05-07T14:58:50.147Z,2.33
2023-05-07T15:01:37.706Z,2.55
2023-05-07T15:04:26.314Z,2.33
2023-05-07T15:07:16.197Z,2.53
2023-05-07T15:10:04.769Z,2.78
2023-05-07T15:12:51.745Z,2.38
2023-05-07T15:15:38.867Z,2.58
2023-05-07T15:18:27.227Z,2.60
2023-05-07T15:21:14.581Z,2.38
2023-05-07T15:24:02.141Z,2.33
2023-05-07T15:26:51.052Z,2.75
2023-05-07T15:29:38.453Z,2.08
2023-05-07T15:32:26.536Z,2.50
2023-05-07T15:35:14.278Z,2.50
2023-05-07T15:38:02.448Z,2.42
2023-05-07T15:40:49.767Z,2.30
2023-05-07T15:43:47.862Z,2.85
2023-05-07T15:46:35.022Z,2.25
2023-05-07T15:49:23.130Z,2.42
2023-05-07T15:52:12.026Z,2.30
2023-05-07T15:55:01.422Z,2.42
2023-05-07T15:57:48.921Z,2.20
2023-05-07T16:00:37.592Z,2.63
2023-05-07T16:03:25.296Z,2.60
2023-05-07T16:06:13.409Z,2.35
2023-05-07T16:09:00.914Z,2.42
2023-05-07T16:11:48.214Z,2.10
2023-05-07T16:14:35.369Z,2.33
2023-05-07T16:17:24.094Z,1.83
2023-05-07T16:20:13.367Z,2.05
2023-05-07T16:23:00.553Z,1.70
2023-05-07T16:25:47.948Z,2.10
2023-05-07T16:28:35.338Z,1.90
2023-05-07T16:31:22.628Z,1.80
2023-05-07T16:34:11.524Z,1.55
2023-05-07T16:36:58.627Z,2.08
2023-05-07T16:39:45.987Z,1.73
2023-05-07T16:42:33.516Z,1.60
2023-05-07T16:45:20.846Z,1.85
2023-05-07T16:48:08.879Z,1.63
2023-05-07T16:50:59.477Z,1.92
2023-05-07T16:53:46.880Z,1.92
2023-05-07T16:56:34.142Z,2.15
2023-05-07T16:59:21.522Z,1.90
2023-05-07T17:02:09.120Z,1.70
2023-05-07T17:04:56.281Z,1.88
2023-05-07T17:07:44.781Z,1.95
2023-05-07T17:10:31.726Z,1.77
2023-05-07T17:13:19.234Z,1.65
2023-05-07T17:16:06.915Z,2.00
2023-05-07T17:18:54.068Z,2.00
2023-05-07T17:21:41.427Z,2.10
2023-05-07T17:24:30.142Z,1.98
2023-05-07T17:27:17.436Z,1.67
2023-05-07T17:30:04.909Z,2.10
2023-05-07T17:32:52.163Z,1.75
2023-05-07T17:35:39.122Z,2.00
2023-05-07T17:38:26.152Z,1.85
2023-05-07T17:41:14.810Z,1.77
2023-05-07T17:44:02.037Z,1.98
2023-05-07T17:46:53.560Z,2.08
2023-05-07T17:49:44.436Z,1.80
2023-05-07T17:52:34.179Z,2.10
2023-05-07T17:55:26.712Z,2.00
2023-05-07T17:58:15.098Z,1.70
2023-05-07T18:01:02.153Z,2.00
2023-05-07T18:03:49.335Z,1.85
2023-05-07T18:06:36.997Z,2.30
2023-05-07T18:09:24.055Z,2.20
2023-05-07T18:12:11.658Z,2.30
2023-05-07T18:15:00.116Z,1.92
2023-05-07T18:17:47.265Z,1.92
2023-05-07T18:20:34.520Z,2.53
2023-05-07T18:23:21.612Z,2.17
2023-05-07T18:26:08.912Z,1.83
2023-05-07T18:28:56.127Z,1.70
2023-05-07T18:31:44.919Z,1.58
2023-05-07T18:34:31.735Z,2.17
2023-05-07T18:37:19.168Z,1.95
2023-05-07T18:40:07.072Z,2.30
2023-05-07T18:42:54.529Z,2.58
2023-05-07T18:45:42.600Z,2.30
2023-05-07T18:48:31.362Z,2.20
2023-05-07T18:51:18.613Z,2.20
2023-05-07T18:54:06.393Z,2.10
2023-05-07T18:56:53.455Z,2.17
2023-05-07T18:59:40.812Z,2.20
2023-05-07T19:02:27.764Z,2.30
2023-05-07T19:05:18.530Z,2.20
2023-05-07T19:08:06.566Z,2.00
2023-05-07T19:10:56.118Z,1.95
2023-05-07T19:13:44.302Z,2.03
2023-05-07T19:16:31.937Z,2.40
2023-05-07T19:19:19.675Z,2.17
2023-05-07T19:22:08.255Z,2.00
2023-05-07T19:24:55.310Z,2.22
2023-05-07T19:27:42.536Z,2.40
2023-05-07T19:30:29.556Z,2.75
2023-05-07T19:33:16.938Z,2.47
2023-05-07T19:36:04.270Z,2.80
2023-05-07T19:38:53.919Z,2.90
2023-05-07T19:41:41.972Z,2.78
2023-05-07T19:44:29.032Z,2.90
2023-05-07T19:47:17.636Z,3.13
2023-05-07T19:50:05.192Z,3.60
2023-05-07T19:52:52.514Z,4.10
2023-05-07T19:55:40.880Z,4.50
2023-05-07T19:58:27.773Z,4.18
2023-05-07T20:01:14.909Z,4.78
2023-05-07T20:04:01.925Z,4.47
2023-05-07T20:06:49.258Z,4.68
2023-05-07T20:09:36.536Z,4.32
2023-05-07T20:12:24.732Z,4.60
2023-05-07T20:15:12.482Z,4.60
2023-05-07T20:17:59.541Z,4.70
2023-05-07T20:20:46.846Z,5.35
2023-05-07T20:23:33.739Z,5.38
2023-05-07T20:26:21.625Z,5.32
2023-05-07T20:29:10.295Z,5.32
2023-05-07T20:32:06.898Z,5.28
2023-05-07T20:34:54.366Z,5.72
2023-05-07T20:37:41.980Z,5.05
2023-05-07T20:40:29.140Z,5.35
2023-05-07T20:43:16.369Z,5.65
2023-05-07T20:46:05.947Z,5.57
2023-05-07T20:48:53.110Z,5.72
2023-05-07T20:51:40.442Z,6.00
2023-05-07T20:54:28.301Z,6.00
2023-05-07T20:57:15.699Z,5.45
2023-05-07T21:00:04.045Z,5.88
2023-05-07T21:02:53.371Z,5.22
2023-05-07T21:05:40.519Z,5.68
2023-05-07T21:08:27.986Z,5.88
2023-05-07T21:11:15.390Z,5.80
2023-05-07T21:14:02.453Z,6.25
2023-05-07T21:16:49.820Z,6.30
2023-05-07T21:19:38.748Z,6.22
2023-05-07T21:22:26.029Z,6.25
2023-05-07T21:25:13.598Z,6.03
2023-05-07T21:28:01.291Z,6.50
2023-05-07T21:30:48.201Z,6.45
2023-05-07T21:33:35.525Z,6.13
2023-05-07T21:36:23.667Z,6.43
2023-05-07T21:39:11.042Z,7.43
2023-05-07T21:41:58.618Z,7.13
2023-05-07T21:44:45.600Z,7.32
2023-05-07T21:47:32.546Z,7.13
2023-05-07T21:50:20.609Z,7.05
2023-05-07T21:53:08.963Z,7.07
2023-05-07T21:55:56.070Z,7.03
2023-05-07T21:58:43.391Z,7.32
2023-05-07T22:01:30.625Z,7.45
2023-05-07T22:04:17.777Z,7.65
2023-05-07T22:07:04.883Z,7.50
2023-05-07T22:09:53.504Z,7.20
2023-05-07T22:12:40.791Z,7.47
2023-05-07T22:15:27.835Z,7.45
2023-05-07T22:18:14.941Z,8.05
2023-05-07T22:21:02.289Z,7.82
2023-05-07T22:23:49.677Z,8.13
2023-05-07T22:26:38.245Z,8.13
2023-05-07T22:29:25.908Z,8.50
2023-05-07T22:32:13.064Z,8.27
2023-05-07T22:35:00.144Z,8.00
2023-05-07T22:37:47.197Z,8.18
2023-05-07T22:40:34.361Z,8.48
2023-05-07T22:43:23.031Z,8.65
2023-05-07T22:46:10.353Z,9.10
2023-05-07T22:48:57.703Z,8.70
2023-05-07T22:51:44.533Z,7.82
2023-05-07T22:54:32.608Z,8.13
2023-05-07T22:57:19.901Z,9.18
2023-05-07T23:00:09.917Z,8.23
2023-05-07T23:02:57.048Z,8.63
2023-05-07T23:05:44.513Z,8.73
2023-05-07T23:08:31.751Z,9.00
2023-05-07T23:11:18.621Z,9.00
2023-05-07T23:14:05.650Z,8.90
2023-05-07T23:16:54.498Z,9.63
2023-05-07T23:19:41.940Z,9.25
2023-05-07T23:22:29.111Z,9.73
2023-05-07T23:25:16.988Z,8.93
2023-05-07T23:28:04.171Z,9.48
2023-05-07T23:30:51.293Z,9.10
2023-05-07T23:33:40.316Z,8.95
2023-05-07T23:36:28.640Z,8.75
2023-05-07T23:39:15.964Z,9.27
2023-05-07T23:42:04.085Z,9.55
2023-05-07T23:44:52.027Z,9.30
2023-05-07T23:47:39.010Z,10.18
2023-05-07T23:50:27.615Z,10.20
2023-05-07T23:53:14.470Z,10.23
2023-05-07T23:56:01.590Z,9.68
2023-05-07T23:58:49.048Z,9.73
